Decoded Metar for KSAT (SAN ANTONIO in TX, USA) (IATA:SAT) | Meteo·Mobile Aviation Weather
aviador You're here:

KSAT Decoded Metar

SAN ANTONIO in TX, USA
Report Time2018-10-22 08:51:00
UTC Time2018-10-22 09:30:51
Flight Rules vfr VFR
Wind010° at 03 kt
W.Decomp.*RWY 04: 2.4 kt HW 1.8 kt LCW
RWY 30: 1.4 kt HW 2.6 kt RCW
W.Rank010° ranks 8
Current wind is below 010° avg. (8.7)
Visibility9999 m
Phenomena:N/A
Clouds:Broken 170 Hf
Overcast 250 Hf
Expected CloudBase > 2,400 ft AGL from Temp-Dew spread
Ceiling17,000 ft
Temp14°C (ISA +1)
Dew Point08°C (67% RH)
AAT12.4°C
QNH1022 hPa
Density Alt712 ft
Elevation797 ft
Report Wrong Elevation
Raw Report
KSAT 220851Z COR 01003KT 10SM BKN170 OVC250 14/08 A3017 RMK AO2
SLP204 T01440078 57009=

Extra information for KSAT:More info

Metar Taf Metar & Taf Last 4 Metars F.Rules Stats Wind Profile Meteogram Temp Stats Airport Information Weather charts Add Link Nearby VenuesMetar ALERT Operation Metar Decoded Social comments

AIRNAV info for KSAT